Tennessee — FM3908 — position and weather

sailwx.info

Track history (hours):
 
Tides and Currents Weather Stations Pressure Air Temp Water Temp Dewpoint Dewpoint Depression Visibility Wind Speed Wind Dir Waves Ship Positions

Tennessee

Last reported at 2015-Mar-14 17:23 UTC. Time now 2015-Mar-31 05:25 UTC.
Position N 43°39' E 004°26'.
Warning: this ship's position is 16 days out of date.

Length 80 m; draft 0.3 m.

Type: Ship. MMSI: 227095770.

Date/timePositionNaut miles runAvg speedWind from/ knotsBaromVisibWave heightAir tempDewpointWater temp
2015-Mar-14 17:23N 43°39' E 004°26'59 1.7
2015-Mar-13 06:08N 42°47' E 003°49'40 5.1
2015-Mar-12 22:23N 43°26' E 003°46'0 0.0
2015-Mar-12 19:24N 43°26' E 003°46'0 0.0
2015-Mar-12 18:32N 43°26' E 003°46'0 0.0
2015-Mar-12 17:28N 43°26' E 003°46'0 0.0
2015-Mar-12 16:25N 43°26' E 003°46'3 2.3
2015-Mar-12 15:18N 43°24' E 003°43'0 0.0
2015-Mar-12 14:30N 43°24' E 003°43'0 0.0
2015-Mar-12 12:33N 43°24' E 003°43'0 0.1
2015-Mar-12 11:31N 43°24' E 003°43'0 0.0
2015-Mar-12 10:33N 43°24' E 003°43'0 0.0
2015-Mar-12 09:27N 43°24' E 003°43'0 0.0
2015-Mar-12 08:22N 43°24' E 003°43'0 0.0
2015-Mar-12 07:23N 43°24' E 003°43'0 0.0
2015-Mar-11 20:14N 43°24' E 003°43'0 0.0
2015-Mar-11 19:33N 43°24' E 003°43'0 0.0
2015-Mar-11 18:27N 43°24' E 003°43'0 0.0
2015-Mar-11 17:33N 43°24' E 003°43'0 0.1
2015-Mar-11 16:32N 43°24' E 003°43'0 0.0
2015-Mar-11 15:13N 43°24' E 003°43'0 0.0
2015-Mar-11 14:33N 43°24' E 003°43'0 0.0
2015-Mar-11 13:32N 43°24' E 003°43'0 0.0
2015-Mar-11 12:32N 43°24' E 003°43'0 0.0
2015-Mar-11 11:33N 43°24' E 003°43'0 0.0
2015-Mar-11 10:25N 43°24' E 003°43'0 0.0
2015-Mar-11 09:27N 43°24' E 003°43'0 0.0
2015-Mar-11 08:19N 43°24' E 003°43'0 0.0
2015-Mar-11 07:32N 43°24' E 003°43'0 0.0
2015-Mar-10 22:24N 43°24' E 003°43'0 0.0
2015-Mar-10 19:23N 43°24' E 003°43'0 0.0
2015-Mar-10 18:25N 43°24' E 003°43'1 1.6
2015-Mar-10 17:33N 43°25' E 003°45'1 1.2
2015-Mar-10 16:29N 43°26' E 003°46'0 0.0
2015-Mar-10 15:33N 43°26' E 003°46'0 0.0
2015-Mar-10 14:12N 43°26' E 003°46'0 0.0
2015-Mar-10 13:24N 43°26' E 003°46'0 0.0
2015-Mar-10 12:26N 43°26' E 003°46'0 0.0
2015-Mar-10 11:17N 43°26' E 003°46'0 0.0
2015-Mar-10 10:07N 43°26' E 003°46'0 0.0
2015-Mar-10 09:31N 43°26' E 003°46'0 0.0
2015-Mar-10 07:20N 43°26' E 003°46'0 0.0
2015-Mar-10 06:04N 43°26' E 003°46'0 0.0
2015-Mar-09 21:22N 43°26' E 003°46'0 0.0
2015-Mar-09 20:28N 43°26' E 003°46'0 0.0
2015-Mar-09 19:29N 43°26' E 003°46'0 0.0
2015-Mar-09 18:21N 43°26' E 003°46'0 0.0
2015-Mar-09 17:30N 43°26' E 003°46'0 0.0
2015-Mar-09 16:26N 43°26' E 003°46'0 0.0
2015-Mar-09 15:16N 43°26' E 003°46'0 0.0
2015-Mar-09 14:24N 43°26' E 003°46'0 0.0
2015-Mar-09 13:29N 43°26' E 003°46'0 0.0
2015-Mar-09 12:30N 43°26' E 003°46'0 0.0
2015-Mar-09 11:33N 43°26' E 003°46'0 0.0
2015-Mar-09 10:33N 43°26' E 003°46'0 0.0
2015-Mar-09 09:33N 43°26' E 003°46'  
2015-Mar-06 21:33N 43°24' E 003°43'0 0.0
2015-Mar-06 19:14N 43°24' E 003°43'0 0.0
2015-Mar-06 18:32N 43°24' E 003°43'0 0.0
2015-Mar-06 17:25N 43°24' E 003°43'0 0.0
2015-Mar-06 16:33N 43°24' E 003°43'0 0.0
2015-Mar-06 15:32N 43°24' E 003°43'0 0.0
2015-Mar-06 14:31N 43°24' E 003°43'0 0.0
2015-Mar-06 13:33N 43°24' E 003°43'0 0.0
2015-Mar-06 12:32N 43°24' E 003°43'0 0.0
2015-Mar-06 11:33N 43°24' E 003°43'4 3.8
2015-Mar-06 10:33N 43°27' E 003°47'2 1.8
2015-Mar-06 09:33N 43°28' E 003°49'1 1.4
2015-Mar-06 08:33N 43°29' E 003°50'2 1.5
2015-Mar-06 07:28N 43°30' E 003°52'  
Track history (hours):
 
Tides and Currents Weather Stations Pressure Air Temp Water Temp Dewpoint Dewpoint Depression Visibility Wind Speed Wind Dir Waves Ship Positions

Tennessee

Last reported at 2015-Mar-14 17:23 UTC. Time now 2015-Mar-31 05:25 UTC.
Position N 43°39' E 004°26'.
Warning: this ship's position is 16 days out of date.

Length 80 m; draft 0.3 m.

Type: Ship. MMSI: 227095770.

Date/timePositionNaut miles runAvg speedWind from/ knotsBaromVisibWave heightAir tempDewpointWater temp
2015-Mar-14 17:23N 43°39' E 004°26'59 1.7
2015-Mar-13 06:08N 42°47' E 003°49'40 5.1
2015-Mar-12 22:23N 43°26' E 003°46'0 0.0
2015-Mar-12 19:24N 43°26' E 003°46'0 0.0
2015-Mar-12 18:32N 43°26' E 003°46'0 0.0
2015-Mar-12 17:28N 43°26' E 003°46'0 0.0
2015-Mar-12 16:25N 43°26' E 003°46'3 2.3
2015-Mar-12 15:18N 43°24' E 003°43'0 0.0
2015-Mar-12 14:30N 43°24' E 003°43'0 0.0
2015-Mar-12 12:33N 43°24' E 003°43'0 0.1
2015-Mar-12 11:31N 43°24' E 003°43'0 0.0
2015-Mar-12 10:33N 43°24' E 003°43'0 0.0
2015-Mar-12 09:27N 43°24' E 003°43'0 0.0
2015-Mar-12 08:22N 43°24' E 003°43'0 0.0
2015-Mar-12 07:23N 43°24' E 003°43'0 0.0
2015-Mar-11 20:14N 43°24' E 003°43'0 0.0
2015-Mar-11 19:33N 43°24' E 003°43'0 0.0
2015-Mar-11 18:27N 43°24' E 003°43'0 0.0
2015-Mar-11 17:33N 43°24' E 003°43'0 0.1
2015-Mar-11 16:32N 43°24' E 003°43'0 0.0
2015-Mar-11 15:13N 43°24' E 003°43'0 0.0
2015-Mar-11 14:33N 43°24' E 003°43'0 0.0
2015-Mar-11 13:32N 43°24' E 003°43'0 0.0
2015-Mar-11 12:32N 43°24' E 003°43'0 0.0
2015-Mar-11 11:33N 43°24' E 003°43'0 0.0
2015-Mar-11 10:25N 43°24' E 003°43'0 0.0
2015-Mar-11 09:27N 43°24' E 003°43'0 0.0
2015-Mar-11 08:19N 43°24' E 003°43'0 0.0
2015-Mar-11 07:32N 43°24' E 003°43'0 0.0
2015-Mar-10 22:24N 43°24' E 003°43'0 0.0
2015-Mar-10 19:23N 43°24' E 003°43'0 0.0
2015-Mar-10 18:25N 43°24' E 003°43'1 1.6
2015-Mar-10 17:33N 43°25' E 003°45'1 1.2
2015-Mar-10 16:29N 43°26' E 003°46'0 0.0
2015-Mar-10 15:33N 43°26' E 003°46'0 0.0
2015-Mar-10 14:12N 43°26' E 003°46'0 0.0
2015-Mar-10 13:24N 43°26' E 003°46'0 0.0
2015-Mar-10 12:26N 43°26' E 003°46'0 0.0
2015-Mar-10 11:17N 43°26' E 003°46'0 0.0
2015-Mar-10 10:07N 43°26' E 003°46'0 0.0
2015-Mar-10 09:31N 43°26' E 003°46'0 0.0
2015-Mar-10 07:20N 43°26' E 003°46'0 0.0
2015-Mar-10 06:04N 43°26' E 003°46'0 0.0
2015-Mar-09 21:22N 43°26' E 003°46'0 0.0
2015-Mar-09 20:28N 43°26' E 003°46'0 0.0
2015-Mar-09 19:29N 43°26' E 003°46'0 0.0
2015-Mar-09 18:21N 43°26' E 003°46'0 0.0
2015-Mar-09 17:30N 43°26' E 003°46'0 0.0
2015-Mar-09 16:26N 43°26' E 003°46'0 0.0
2015-Mar-09 15:16N 43°26' E 003°46'0 0.0
2015-Mar-09 14:24N 43°26' E 003°46'0 0.0
2015-Mar-09 13:29N 43°26' E 003°46'0 0.0
2015-Mar-09 12:30N 43°26' E 003°46'0 0.0
2015-Mar-09 11:33N 43°26' E 003°46'0 0.0
2015-Mar-09 10:33N 43°26' E 003°46'0 0.0
2015-Mar-09 09:33N 43°26' E 003°46'  
2015-Mar-06 21:33N 43°24' E 003°43'0 0.0
2015-Mar-06 19:14N 43°24' E 003°43'0 0.0
2015-Mar-06 18:32N 43°24' E 003°43'0 0.0
2015-Mar-06 17:25N 43°24' E 003°43'0 0.0
2015-Mar-06 16:33N 43°24' E 003°43'0 0.0
2015-Mar-06 15:32N 43°24' E 003°43'0 0.0
2015-Mar-06 14:31N 43°24' E 003°43'0 0.0
2015-Mar-06 13:33N 43°24' E 003°43'0 0.0
2015-Mar-06 12:32N 43°24' E 003°43'0 0.0
2015-Mar-06 11:33N 43°24' E 003°43'4 3.8
2015-Mar-06 10:33N 43°27' E 003°47'2 1.8
2015-Mar-06 09:33N 43°28' E 003°49'1 1.4
2015-Mar-06 08:33N 43°29' E 003°50'2 1.5
2015-Mar-06 07:28N 43°30' E 003°52'  

Dump ship's entire track history